Cabezon de la Sal, Spain
Current Conditions -  °F | °C
As of 11:30 PM on Wednesday 26 Nov 2014 (Local Time) from LEXJ Reporting Station
Broken Clouds Broken Clouds  
Wind Chill: 50°   Ceiling: 8000
Heat Index: 50°   Visibility: 6mi
Dew Point: 48°   Wind: 0mph
Humidity: 94%   Direction: NA
Pressure: 29.77"   Gusts: NA
Location:  43.31°N, 4.24°W
Report Text: LEXJ 262230Z 00000KT 9999 BKN080 10/09 Q1008
Loading
Personal Weather Stations






























Interactive Weather Map New forecast layout! Learn more

10-Day Weather Forecast

Advertisements
Track Severe Weather on mobile